Time;durP1;ratioP1;P1;durP2;ratioP2;P2;SDS_P1;SDS_P2;PMS_P1;PMS_P2;Temp;Humidity;BMP_temperature;BMP_pressure;BME280_temperature;BME280_humidity;BME280_pressure;Samples;Min_cycle;Max_cycle;Signal;HPM_P1;HPM_P2
2022/04/04 00:00:06;;;;;;;7.13;3.97;;;;;;;;;;4980705;28;20430;-70
2022/04/04 00:02:33;;;;;;;6.83;4.00;;;;;;;;;;4994322;28;20415;-70
2022/04/04 00:04:59;;;;;;;7.07;3.70;;;;;;;;;;4987406;28;20438;-69
2022/04/04 00:07:25;;;;;;;7.75;4.03;;;;;;;;;;4978489;28;20422;-70
2022/04/04 00:09:51;;;;;;;7.18;4.13;;;;;;;;;;4975809;28;20432;-69
2022/04/04 00:12:17;;;;;;;7.32;4.00;;;;;;;;;;4993794;28;20734;-70
2022/04/04 00:14:44;;;;;;;6.00;3.70;;;;;;;;;;4976431;28;20407;-69
2022/04/04 00:17:11;;;;;;;8.02;4.25;;;;;;;;;;4975935;28;20436;-69
2022/04/04 00:19:37;;;;;;;6.28;4.05;;;;;;;;;;4992892;28;20945;-69
2022/04/04 00:22:03;;;;;;;7.45;4.43;;;;;;;;;;4978960;28;20519;-69
2022/04/04 00:24:30;;;;;;;7.15;4.25;;;;;;;;;;4989695;28;20508;-71
2022/04/04 00:26:56;;;;;;;6.95;4.38;;;;;;;;;;4989050;28;20431;-69
2022/04/04 00:29:22;;;;;;;8.38;4.60;;;;;;;;;;4993338;28;20498;-69
2022/04/04 00:31:48;;;;;;;7.10;4.22;;;;;;;;;;4989964;28;20517;-70
2022/04/04 00:34:14;;;;;;;7.85;4.50;;;;;;;;;;4990442;28;20443;-69
2022/04/04 00:36:41;;;;;;;9.48;5.20;;;;;;;;;;4958508;28;20635;-70
2022/04/04 00:39:07;;;;;;;6.70;4.80;;;;;;;;;;4989145;28;21058;-70
2022/04/04 00:41:33;;;;;;;9.35;5.18;;;;;;;;;;4973187;28;20433;-67
2022/04/04 00:43:59;;;;;;;7.70;4.90;;;;;;;;;;4977740;28;20536;-70
2022/04/04 00:46:25;;;;;;;8.35;5.10;;;;;;;;;;4965970;28;20436;-68
2022/04/04 00:48:51;;;;;;;8.43;5.07;;;;;;;;;;4988042;28;20429;-68
2022/04/04 00:51:17;;;;;;;7.93;5.05;;;;;;;;;;5001581;28;20837;-68
2022/04/04 00:53:44;;;;;;;10.13;5.75;;;;;;;;;;4997050;28;20485;-69
2022/04/04 00:56:11;;;;;;;9.00;5.53;;;;;;;;;;4976352;28;20425;-68
2022/04/04 00:58:38;;;;;;;7.78;5.30;;;;;;;;;;4978133;28;20424;-68
2022/04/04 01:01:05;;;;;;;9.40;5.97;;;;;;;;;;4979743;28;20525;-68
2022/04/04 01:03:31;;;;;;;8.07;5.60;;;;;;;;;;4992838;28;20442;-69
2022/04/04 01:05:59;;;;;;;10.15;5.97;;;;;;;;;;4987893;28;20432;-69
2022/04/04 01:08:26;;;;;;;10.07;6.30;;;;;;;;;;4973230;28;21807;-69
2022/04/04 01:10:52;;;;;;;12.35;7.55;;;4.10;99.90;;;;;;4981956;28;20505;-69
2022/04/04 01:13:18;;;;;;;10.90;7.05;;;;;;;;;;4972715;28;20470;-69
2022/04/04 01:15:44;;;;;;;12.23;7.90;;;;;;;;;;4955119;28;20443;-69
2022/04/04 01:18:11;;;;;;;12.23;7.85;;;;;;;;;;4975065;28;20456;-69
2022/04/04 01:20:37;;;;;;;11.82;7.90;;;4.20;99.90;;;;;;4974124;28;20788;-69
2022/04/04 01:23:04;;;;;;;15.25;8.90;;;4.30;99.90;;;;;;4996295;28;20877;-69
2022/04/04 01:25:32;;;;;;;14.77;8.73;;;4.20;99.90;;;;;;4973686;28;20486;-69
2022/04/04 01:28:01;;;;;;;12.95;9.35;;;;;;;;;;4989421;28;20609;-70
2022/04/04 01:30:27;;;;;;;14.60;9.57;;;;;;;;;;4985243;28;20432;-69
2022/04/04 01:32:54;;;;;;;14.83;9.50;;;;;;;;;;5003625;28;20475;-68
2022/04/04 01:35:21;;;;;;;16.60;9.88;;;;;;;;;;4999051;28;20441;-69
2022/04/04 01:37:47;;;;;;;16.80;10.68;;;;;;;;;;4957549;28;20437;-68
2022/04/04 01:40:15;;;;;;;14.35;10.30;;;;;;;;;;4993922;28;20417;-68
2022/04/04 01:42:45;;;;;;;16.55;11.02;;;4.30;99.90;;;;;;4968190;28;20429;-69
2022/04/04 01:45:11;;;;;;;17.05;11.02;;;;;;;;;;4979592;28;20455;-69
2022/04/04 01:47:38;;;;;;;16.92;11.02;;;;;;;;;;4978286;28;20791;-68
2022/04/04 01:50:04;;;;;;;16.33;11.52;;;;;;;;;;4987255;28;20445;-69
2022/04/04 01:52:31;;;;;;;16.20;11.60;;;;;;;;;;5007358;28;20440;-69
2022/04/04 01:54:57;;;;;;;17.58;11.27;;;;;;;;;;4989890;28;20790;-69
2022/04/04 01:57:23;;;;;;;17.35;12.43;;;;;;;;;;4990436;28;20426;-69
2022/04/04 01:59:49;;;;;;;17.30;11.65;;;;;;;;;;4973532;28;20530;-68
2022/04/04 02:02:15;;;;;;;16.50;11.70;;;;;;;;;;4993210;28;20563;-69
2022/04/04 02:04:41;;;;;;;17.35;12.70;;;;;;;;;;4991735;28;20424;-69
2022/04/04 02:07:07;;;;;;;17.95;12.68;;;;;;;;;;4971531;28;20455;-69
2022/04/04 02:09:34;;;;;;;17.95;13.13;;;4.40;99.90;;;;;;5009530;28;20417;-69
2022/04/04 02:12:00;;;;;;;17.70;13.13;;;;;;;;;;5049834;28;21007;-70
2022/04/04 02:14:26;;;;;;;20.05;13.65;;;;;;;;;;4995220;28;20481;-68
2022/04/04 02:16:53;;;;;;;19.10;13.77;;;;;;;;;;4991242;28;20438;-69
2022/04/04 02:19:19;;;;;;;20.77;14.30;;;;;;;;;;4992878;28;20782;-68
2022/04/04 02:21:45;;;;;;;20.48;14.45;;;;;;;;;;4990381;28;20418;-68
2022/04/04 02:24:12;;;;;;;18.33;13.73;;;;;;;;;;4991359;28;20426;-69
2022/04/04 02:26:38;;;;;;;17.88;14.18;;;;;;;;;;4984591;28;20968;-69
2022/04/04 02:29:04;;;;;;;18.48;14.32;;;;;;;;;;4998197;28;20433;-69
2022/04/04 02:31:31;;;;;;;18.45;14.02;;;;;;;;;;5007522;28;20421;-70
2022/04/04 02:33:57;;;;;;;20.70;13.75;;;;;;;;;;4985207;28;20434;-69
2022/04/04 02:36:23;;;;;;;20.17;13.75;;;;;;;;;;4988635;28;20449;-68
2022/04/04 02:38:49;;;;;;;18.98;14.48;;;;;;;;;;5003582;28;20842;-69
2022/04/04 02:41:16;;;;;;;21.30;14.52;;;;;;;;;;4980930;28;20464;-68
2022/04/04 02:43:42;;;;;;;20.58;14.13;;;;;;;;;;4979163;28;20458;-68
2022/04/04 02:46:11;;;;;;;19.35;13.68;;;;;;;;;;4979131;28;20438;-69
2022/04/04 02:48:37;;;;;;;22.13;14.57;;;;;;;;;;4984054;28;20607;-70
2022/04/04 02:51:03;;;;;;;21.42;14.60;;;;;;;;;;4994729;28;20425;-69
2022/04/04 02:53:29;;;;;;;17.48;13.32;;;;;;;;;;5004832;28;20448;-69
2022/04/04 02:58:39;;;;;;;18.90;13.68;;;;;;;;;;4969242;28;21044;-68
2022/04/04 03:01:05;;;;;;;20.00;14.10;;;;;;;;;;4959796;28;20421;-69
2022/04/04 03:03:32;;;;;;;21.03;13.87;;;;;;;;;;4983890;28;20430;-69
2022/04/04 03:05:58;;;;;;;19.77;13.75;;;;;;;;;;4995264;28;20453;-69
2022/04/04 03:08:24;;;;;;;21.08;14.23;;;;;;;;;;4995139;28;20522;-68
2022/04/04 03:10:50;;;;;;;22.50;13.80;;;;;;;;;;4956112;28;20447;-68
2022/04/04 03:13:16;;;;;;;18.23;13.65;;;;;;;;;;4983439;28;20426;-68
2022/04/04 03:15:42;;;;;;;20.38;13.93;;;;;;;;;;4976225;28;20489;-68
2022/04/04 03:18:08;;;;;;;21.50;13.73;;;;;;;;;;5003427;28;20433;-68
2022/04/04 03:20:34;;;;;;;20.67;14.27;;;;;;;;;;4998774;28;20424;-69
2022/04/04 03:23:02;;;;;;;22.70;15.00;;;;;;;;;;5004116;28;20523;-68
2022/04/04 03:25:28;;;;;;;20.10;14.07;;;4.80;99.90;;;;;;4994733;28;20419;-69
2022/04/04 03:27:55;;;;;;;23.58;14.45;;;;;;;;;;4986453;28;20433;-69
2022/04/04 03:30:22;;;;;;;21.10;14.43;;;;;;;;;;5002956;28;20801;-69
2022/04/04 03:32:49;;;;;;;21.67;14.10;;;;;;;;;;4994292;28;20434;-69
2022/04/04 03:35:16;;;;;;;23.35;14.73;;;;;;;;;;4987617;28;20500;-69
2022/04/04 03:37:43;;;;;;;22.00;14.07;;;;;;;;;;4985413;28;20425;-69
2022/04/04 03:40:12;;;;;;;22.52;15.15;;;;;;;;;;4988357;28;20431;-69
2022/04/04 03:42:38;;;;;;;20.63;14.55;;;;;;;;;;4998228;28;20803;-69
2022/04/04 03:45:05;;;;;;;21.50;14.80;;;;;;;;;;4985049;28;20443;-69
2022/04/04 03:47:34;;;;;;;21.93;14.43;;;;;;;;;;4962462;28;20505;-69
2022/04/04 03:50:00;;;;;;;24.20;15.18;;;;;;;;;;4981776;28;20454;-69
2022/04/04 03:52:27;;;;;;;23.60;15.23;;;;;;;;;;4969547;28;20492;-69
2022/04/04 03:54:53;;;;;;;25.13;15.48;;;;;;;;;;4993085;28;20460;-69
2022/04/04 03:57:19;;;;;;;23.83;15.45;;;;;;;;;;4981550;28;20458;-70
2022/04/04 03:59:45;;;;;;;28.03;16.37;;;;;;;;;;4985969;28;20596;-69
2022/04/04 04:02:12;;;;;;;25.00;16.65;;;;;;;;;;4975497;28;20472;-69
2022/04/04 04:04:38;;;;;;;23.75;16.60;;;;;;;;;;4990043;28;20412;-68
2022/04/04 04:07:10;;;;;;;24.67;17.10;;;5.30;99.90;;;;;;5005038;28;20433;-68
2022/04/04 04:09:37;;;;;;;26.57;16.73;;;;;;;;;;4995449;28;20554;-69
2022/04/04 04:12:03;;;;;;;25.77;16.45;;;;;;;;;;4992513;28;20440;-70
2022/04/04 04:14:29;;;;;;;24.38;15.80;;;;;;;;;;4976889;28;20473;-69
2022/04/04 04:16:55;;;;;;;25.30;15.82;;;;;;;;;;4983275;28;20428;-69
2022/04/04 04:22:06;;;;;;;24.63;16.70;;;;;;;;;;5005271;28;20439;-70
2022/04/04 04:24:32;;;;;;;28.13;17.58;;;;;;;;;;4978890;28;20434;-69
2022/04/04 04:26:58;;;;;;;27.38;16.67;;;5.10;99.90;;;;;;4988798;28;20478;-70
2022/04/04 04:29:24;;;;;;;26.10;17.35;;;;;;;;;;4995570;28;20653;-69
2022/04/04 04:31:51;;;;;;;24.98;16.95;;;;;;;;;;4983220;28;20428;-69
2022/04/04 04:34:17;;;;;;;27.55;17.27;;;;;;;;;;4997473;28;20449;-70
2022/04/04 04:36:43;;;;;;;26.73;16.52;;;;;;;;;;4977912;28;20477;-69
2022/04/04 04:39:10;;;;;;;26.63;17.67;;;;;;;;;;4991152;28;20440;-69
2022/04/04 04:41:36;;;;;;;26.92;17.80;;;;;;;;;;4986796;28;20507;-69
2022/04/04 04:44:03;;;;;;;27.13;17.35;;;;;;;;;;4982849;28;20434;-68
2022/04/04 04:46:36;;;;;;;25.83;17.45;;;;;;;;;;4990567;28;20445;-69
2022/04/04 04:49:02;;;;;;;22.60;16.55;;;;;;;;;;4992542;28;20787;-69
2022/04/04 04:51:28;;;;;;;26.42;17.73;;;;;;;;;;4969036;28;20438;-69
2022/04/04 04:53:54;;;;;;;26.38;18.42;;;;;;;;;;4972729;28;20456;-69
2022/04/04 04:56:20;;;;;;;28.40;18.40;;;;;;;;;;4987703;28;20430;-69
2022/04/04 04:58:46;;;;;;;28.75;18.98;;;;;;;;;;4992808;28;20409;-70
2022/04/04 05:01:12;;;;;;;30.58;18.95;;;5.30;99.90;;;;;;4980396;28;20486;-69
2022/04/04 05:03:38;;;;;;;28.77;19.20;;;;;;;;;;4973836;28;20424;-69
2022/04/04 05:06:05;;;;;;;31.70;18.67;;;;;;;;;;4991064;28;20434;-70
2022/04/04 05:08:32;;;;;;;29.48;19.83;;;;;;;;;;4989434;28;20496;-70
2022/04/04 05:10:59;;;;;;;36.40;23.20;;;;;;;;;;4981648;28;20442;-70
2022/04/04 05:13:26;;;;;;;30.23;19.17;;;;;;;;;;4971643;28;20442;-70
2022/04/04 05:15:54;;;;;;;29.13;19.63;;;;;;;;;;4993314;28;20434;-70
2022/04/04 05:18:21;;;;;;;26.25;17.42;;;5.30;99.90;;;;;;4981482;28;20440;-70
2022/04/04 05:20:47;;;;;;;32.20;19.48;;;;;;;;;;4959259;28;20442;-70
2022/04/04 05:23:13;;;;;;;28.52;19.42;;;;;;;;;;4982314;28;20460;-70
2022/04/04 05:25:40;;;;;;;30.40;18.42;;;;;;;;;;4973261;28;20428;-70
2022/04/04 05:28:07;;;;;;;27.63;18.83;;;;;;;;;;4958528;28;21820;-70
2022/04/04 05:30:34;;;;;;;31.30;19.42;;;5.20;99.90;;;;;;4992892;28;20413;-70
2022/04/04 05:33:00;;;;;;;32.58;20.67;;;;;;;;;;4973237;28;20494;-70
2022/04/04 05:35:26;;;;;;;27.83;17.02;;;;;;;;;;4985026;28;20450;-71
2022/04/04 05:37:54;;;;;;;21.52;13.90;;;;;;;;;;4980626;28;20422;-70
2022/04/04 05:40:21;;;;;;;21.73;12.32;;;;;;;;;;4956976;28;20421;-71
2022/04/04 05:42:47;;;;;;;19.35;12.68;;;;;;;;;;4975249;28;20529;-72
2022/04/04 05:45:14;;;;;;;20.43;11.60;;;;;;;;;;5033965;28;20493;-71
2022/04/04 05:47:41;;;;;;;18.17;10.82;;;;;;;;;;4993376;28;20496;-70
2022/04/04 05:50:07;;;;;;;16.73;11.03;;;;;;;;;;4972592;28;20499;-70
2022/04/04 05:52:37;;;;;;;19.48;11.68;;;;;;;;;;4961212;28;20447;-70
2022/04/04 05:55:04;;;;;;;18.58;11.55;;;;;;;;;;4991040;28;20426;-72
2022/04/04 05:57:36;;;;;;;15.60;9.65;;;;;;;;;;4975541;28;20439;-71
2022/04/04 06:00:10;;;;;;;17.65;9.88;;;5.30;99.90;;;;;;4985886;28;20437;-71
2022/04/04 06:02:37;;;;;;;17.83;9.10;;;;;;;;;;4991657;28;20431;-71
2022/04/04 06:05:04;;;;;;;16.17;9.13;;;5.20;99.90;;;;;;4974288;28;20433;-71
2022/04/04 06:07:30;;;;;;;15.40;8.35;;;;;;;;;;4968423;28;20466;-72
2022/04/04 06:09:56;;;;;;;14.73;8.23;;;;;;;;;;4960039;28;20433;-72
2022/04/04 06:12:22;;;;;;;12.80;7.55;;;;;;;;;;4979130;28;20425;-72
2022/04/04 06:14:48;;;;;;;15.57;7.60;;;;;;;;;;4963035;28;20500;-72
2022/04/04 06:17:15;;;;;;;13.50;6.32;;;;;;;;;;4973100;28;20945;-72
2022/04/04 06:19:42;;;;;;;12.13;6.20;;;;;;;;;;4989148;28;20512;-71
2022/04/04 06:22:08;;;;;;;9.90;5.30;;;;;;;;;;4990250;28;20453;-72
2022/04/04 06:24:34;;;;;;;14.13;5.25;;;;;;;;;;4986790;28;20434;-72
2022/04/04 06:27:01;;;;;;;9.38;5.03;;;;;;;;;;4970064;28;20433;-72
2022/04/04 06:29:27;;;;;;;10.82;5.28;;;;;;;;;;5000299;28;20438;-72
2022/04/04 06:31:53;;;;;;;11.18;5.68;;;;;;;;;;4972270;28;20439;-72
2022/04/04 06:34:19;;;;;;;10.23;6.07;;;;;;;;;;4978033;28;20499;-71
2022/04/04 06:36:46;;;;;;;9.75;5.63;;;;;;;;;;4988688;28;20432;-71
2022/04/04 06:39:13;;;;;;;10.50;5.57;;;;;;;;;;4988532;28;20432;-72
2022/04/04 06:41:39;;;;;;;9.35;5.70;;;;;;;;;;4994942;28;20433;-72
2022/04/04 06:44:05;;;;;;;14.35;6.53;;;;;;;;;;4984818;28;20887;-72
2022/04/04 06:46:32;;;;;;;10.25;6.35;;;;;;;;;;4988516;28;20488;-72
2022/04/04 06:48:58;;;;;;;11.35;6.78;;;;;;;;;;4978150;28;20458;-73
2022/04/04 06:51:24;;;;;;;11.17;6.17;;;;;;;;;;4978383;28;20482;-72
2022/04/04 06:53:51;;;;;;;11.80;6.53;;;;;;;;;;4986691;28;20517;-73
2022/04/04 06:56:17;;;;;;;12.77;7.30;;;;;;;;;;4979624;28;20430;-72
2022/04/04 06:58:43;;;;;;;12.02;7.70;;;;;;;;;;4976200;28;20434;-72
2022/04/04 07:01:10;;;;;;;13.83;7.97;;;;;;;;;;4982322;28;20421;-72
2022/04/04 07:03:36;;;;;;;12.60;8.53;;;;;;;;;;4987717;28;20958;-73
2022/04/04 07:06:02;;;;;;;13.80;9.05;;;;;;;;;;4978965;28;20419;-73
2022/04/04 07:08:28;;;;;;;15.30;9.52;;;;;;;;;;4988475;28;20432;-72
2022/04/04 07:10:54;;;;;;;15.88;10.15;;;;;;;;;;4977533;28;20500;-72
2022/04/04 07:13:21;;;;;;;17.67;10.00;;;;;;;;;;4969701;28;20473;-72
2022/04/04 07:15:47;;;;;;;16.73;10.35;;;;;;;;;;4985646;28;20668;-71
2022/04/04 07:18:13;;;;;;;15.05;10.20;;;;;;;;;;4984017;28;20620;-72
2022/04/04 07:20:39;;;;;;;15.50;10.52;;;;;;;;;;5014302;28;20420;-72
2022/04/04 07:23:05;;;;;;;18.70;11.52;;;;;;;;;;4992111;28;20461;-72
2022/04/04 07:25:32;;;;;;;18.02;11.68;;;;;;;;;;4981391;28;20436;-72
2022/04/04 07:27:58;;;;;;;18.77;12.30;;;;;;;;;;4988832;28;20459;-73
2022/04/04 07:30:24;;;;;;;18.88;12.00;;;;;;;;;;4994546;28;20411;-73
2022/04/04 07:32:51;;;;;;;17.58;12.55;;;;;;;;;;4988992;28;20440;-72
2022/04/04 07:35:18;;;;;;;21.88;13.45;;;;;;;;;;4996292;28;20439;-72
2022/04/04 07:37:45;;;;;;;18.48;13.25;;;;;;;;;;4963330;28;20428;-72
2022/04/04 07:40:13;;;;;;;20.13;13.63;;;;;;;;;;4973315;28;20936;-73
2022/04/04 07:42:40;;;;;;;22.33;14.30;;;;;;;;;;4958827;28;20412;-73
2022/04/04 07:45:07;;;;;;;37.78;16.98;;;;;;;;;;4987789;28;20436;-72
2022/04/04 07:47:33;;;;;;;22.25;14.85;;;;;;;;;;4986434;28;20478;-73
2022/04/04 07:49:59;;;;;;;22.33;15.43;;;;;;;;;;4982598;28;20431;-73
2022/04/04 07:52:27;;;;;;;25.50;15.80;;;5.20;99.90;;;;;;4977455;28;20426;-72
2022/04/04 07:54:53;;;;;;;26.17;16.70;;;;;;;;;;4967346;28;20535;-73
2022/04/04 07:57:20;;;;;;;27.83;16.20;;;;;;;;;;4992479;28;20440;-73
2022/04/04 07:59:46;;;;;;;23.75;15.55;;;;;;;;;;5007350;28;20428;-73
2022/04/04 08:02:12;;;;;;;23.13;15.82;;;;;;;;;;4964269;28;20419;-73
2022/04/04 08:04:38;;;;;;;26.27;16.20;;;;;;;;;;4952703;28;20442;-74
2022/04/04 08:07:05;;;;;;;46.70;18.30;;;5.70;99.90;;;;;;4994940;28;20425;-73
2022/04/04 08:09:31;;;;;;;27.85;16.58;;;;;;;;;;4982613;28;20520;-74
2022/04/04 08:11:57;;;;;;;24.02;15.38;;;;;;;;;;4971623;28;20999;-74
2022/04/04 08:14:23;;;;;;;21.88;14.55;;;;;;;;;;4985544;28;20908;-74
2022/04/04 08:16:50;;;;;;;22.27;14.57;;;;;;;;;;4993313;28;20967;-75
2022/04/04 08:19:17;;;;;;;20.03;14.80;;;;;;;;;;4990961;28;20438;-74
2022/04/04 08:21:44;;;;;;;24.13;15.70;;;;;;;;;;5003711;28;21017;-74
2022/04/04 08:24:10;;;;;;;21.63;14.15;;;;;;;;;;4982207;28;20442;-74
2022/04/04 08:26:36;;;;;;;16.13;11.85;;;;;;;;;;4981233;28;20986;-74
2022/04/04 08:29:02;;;;;;;16.08;11.15;;;;;;;;;;4988397;28;20448;-76
2022/04/04 08:31:28;;;;;;;18.65;12.40;;;;;;;;;;4986116;28;20912;-75
2022/04/04 08:33:54;;;;;;;19.33;11.80;;;;;;;;;;4966833;28;20438;-74
2022/04/04 08:36:20;;;;;;;14.75;9.82;;;;;;;;;;4977759;28;20442;-75
2022/04/04 08:38:46;;;;;;;13.03;8.57;;;;;;;;;;4962702;28;20527;-75
2022/04/04 08:41:13;;;;;;;14.25;9.13;;;;;;;;;;4963786;28;21095;-75
2022/04/04 08:43:40;;;;;;;12.10;8.80;;;;;;;;;;4975065;28;20539;-74
2022/04/04 08:46:07;;;;;;;16.00;9.13;;;;;;;;;;4977019;28;20557;-74
2022/04/04 08:48:38;;;;;;;12.20;7.90;;;;;;;;;;4977263;28;20444;-74
2022/04/04 08:51:07;;;;;;;12.10;8.43;;;;;;;;;;4973453;28;20462;-75
2022/04/04 08:53:37;;;;;;;11.55;7.00;;;;;;;;;;4957078;28;20439;-74
2022/04/04 08:56:04;;;;;;;10.27;7.47;;;;;;;;;;4971497;28;20471;-75
2022/04/04 08:58:31;;;;;;;12.30;7.55;;;;;;;;;;4964315;28;20841;-74
2022/04/04 09:00:57;;;;;;;9.30;6.43;;;;;;;;;;4962024;28;20462;-74
2022/04/04 09:03:29;;;;;;;11.88;7.28;;;;;;;;;;4975630;28;21689;-75
2022/04/04 09:06:00;;;;;;;10.27;5.97;;;;;;;;;;4973439;28;20486;-74
2022/04/04 09:08:28;;;;;;;11.88;6.93;;;;;;;;;;4972395;28;20441;-74
2022/04/04 09:10:55;;;;;;;10.02;5.97;;;;;;;;;;4978137;28;20506;-74
2022/04/04 09:13:22;;;;;;;9.50;6.00;;;;;;;;;;4971759;28;20439;-74
2022/04/04 09:15:58;;;;;;;9.83;6.17;;;;;;;;;;4972052;28;20616;-73
2022/04/04 09:18:36;;;;;;;10.00;6.40;;;;;;;;;;4958854;28;20427;-72
2022/04/04 09:21:03;;;;;;;10.88;6.38;;;;;;;;;;4980240;28;20449;-73
2022/04/04 09:23:50;;;;;;;11.27;6.88;;;;;;;;;;4973394;28;20443;-73
2022/04/04 09:26:28;;;;;;;11.98;6.85;;;;;;;;;;4976403;28;20442;-72
2022/04/04 09:28:54;;;;;;;11.00;6.90;;;;;;;;;;4972526;28;20492;-74
2022/04/04 09:31:20;;;;;;;12.93;7.53;;;;;;;;;;4976521;28;20443;-74
2022/04/04 09:33:46;;;;;;;11.88;7.50;;;;;;;;;;4973273;28;20487;-74
2022/04/04 09:36:12;;;;;;;14.70;7.88;;;;;;;;;;4975028;28;20440;-74
2022/04/04 09:38:42;;;;;;;12.75;7.82;;;;;;;;;;4965862;28;20529;-74
2022/04/04 09:41:15;;;;;;;13.88;7.85;;;;;;;;;;4975593;28;21009;-74
2022/04/04 09:43:51;;;;;;;13.00;7.32;;;;;;;;;;4974606;28;20478;-74
2022/04/04 09:46:17;;;;;;;10.25;6.82;;;;;;;;;;4956903;28;20431;-75
2022/04/04 09:49:02;;;;;;;11.82;7.18;;;;;;;;;;4958647;28;20434;-75
2022/04/04 09:51:35;;;;;;;13.80;7.10;;;;;;;;;;4960021;28;20535;-74
2022/04/04 09:54:05;;;;;;;12.25;7.72;;;;;;;;;;4982281;28;20443;-73
2022/04/04 09:56:31;;;;;;;12.90;7.03;;;;;;;;;;4988235;28;20433;-75
2022/04/04 09:58:59;;;;;;;11.82;7.65;;;;;;;;;;4988419;28;20430;-75
2022/04/04 10:01:26;;;;;;;13.38;8.05;;;;;;;;;;4983114;28;20439;-74
2022/04/04 10:03:53;;;;;;;14.15;8.13;;;;;;;;;;4975652;28;20516;-73
2022/04/04 10:06:19;;;;;;;15.77;8.73;;;;;;;;;;4978186;28;21249;-74
2022/04/04 10:08:46;;;;;;;11.98;8.20;;;;;;;;;;4959161;28;20784;-75
2022/04/04 10:11:13;;;;;;;14.10;8.20;;;;;;;;;;4976514;28;20436;-75
2022/04/04 10:13:39;;;;;;;13.15;7.70;;;;;;;;;;4975949;28;20620;-75
2022/04/04 10:16:09;;;;;;;16.67;9.07;;;;;;;;;;4979828;28;20443;-74
2022/04/04 10:18:36;;;;;;;16.52;8.30;;;;;;;;;;4980512;28;20485;-74
2022/04/04 10:21:02;;;;;;;15.75;8.70;;;;;;;;;;4984727;28;21197;-74
2022/04/04 10:23:28;;;;;;;12.10;8.23;;;;;;;;;;4991400;28;20488;-74
2022/04/04 10:25:57;;;;;;;11.75;7.70;;;;;;;;;;4974042;28;20428;-74
2022/04/04 10:28:31;;;;;;;12.30;7.57;;;;;;;;;;4980708;28;20418;-74
2022/04/04 10:30:57;;;;;;;11.73;7.50;;;;;;;;;;4982851;28;20446;-74
2022/04/04 10:33:25;;;;;;;10.68;7.13;;;;;;;;;;4961666;28;20478;-73
2022/04/04 10:36:03;;;;;;;13.90;7.50;;;;;;;;;;4981317;28;20428;-74
2022/04/04 10:38:31;;;;;;;12.50;7.55;;;;;;;;;;4985568;28;20502;-74
2022/04/04 10:40:57;;;;;;;9.75;6.60;;;;;;;;;;4969112;28;20457;-73
2022/04/04 10:43:23;;;;;;;10.40;6.30;;;;;;;;;;4973973;28;20437;-74
2022/04/04 10:46:01;;;;;;;10.93;6.70;;;6.60;99.90;;;;;;4986750;28;20431;-74
2022/04/04 10:48:35;;;;;;;18.40;8.20;;;;;;;;;;4987251;28;20444;-73
2022/04/04 10:51:12;;;;;;;11.27;6.53;;;;;;;;;;4982748;28;20783;-74
2022/04/04 10:53:43;;;;;;;9.13;6.15;;;;;;;;;;4992570;28;20438;-75
2022/04/04 10:56:11;;;;;;;9.48;6.18;;;;;;;;;;4986981;28;20438;-74
2022/04/04 10:58:37;;;;;;;12.02;7.35;;;;;;;;;;4993907;28;20434;-73
2022/04/04 11:01:09;;;;;;;10.70;6.60;;;;;;;;;;4973513;28;20458;-73
2022/04/04 11:03:42;;;;;;;10.00;6.30;;;;;;;;;;4959175;28;20439;-74
2022/04/04 11:09:00;;;;;;;8.48;5.40;;;;;;;;;;4984339;28;20416;-73
2022/04/04 11:11:45;;;;;;;8.23;5.20;;;;;;;;;;4985833;28;20441;-75
2022/04/04 11:14:12;;;;;;;8.32;5.30;;;;;;;;;;4976079;28;20449;-75
2022/04/04 11:16:57;;;;;;;11.02;5.70;;;;;;;;;;4982552;28;20453;-75
2022/04/04 11:19:28;;;;;;;9.13;5.15;;;;;;;;;;4984016;28;20432;-77
2022/04/04 11:21:54;;;;;;;9.80;5.03;;;;;;;;;;4993899;28;20487;-76
2022/04/04 11:24:20;;;;;;;36.75;7.50;;;7.30;99.90;;;;;;4977099;28;20460;-79
2022/04/04 11:26:47;;;;;;;7.63;4.40;;;;;;;;;;4958337;28;20437;-79
2022/04/04 11:29:19;;;;;;;6.05;4.32;;;;;;;;;;4988382;28;20433;-79
2022/04/04 11:31:48;;;;;;;5.57;3.70;;;;;;;;;;4975891;28;20594;-79
2022/04/04 11:34:14;;;;;;;4.68;3.28;;;;;;;;;;4977336;28;20914;-80
2022/04/04 11:36:43;;;;;;;5.20;3.42;;;;;;;;;;5038298;28;20451;-77
2022/04/04 11:39:10;;;;;;;6.90;3.65;;;;;;;;;;4982614;28;20422;-77
2022/04/04 11:41:37;;;;;;;5.40;3.40;;;;;;;;;;4986354;28;20480;-79
2022/04/04 11:44:03;;;;;;;5.00;2.80;;;;;;;;;;4998663;28;20430;-79
2022/04/04 11:46:30;;;;;;;5.13;2.90;;;;;;;;;;4969777;28;20441;-79
2022/04/04 11:48:56;;;;;;;4.60;2.97;;;7.40;99.90;;;;;;5022069;28;20482;-81
2022/04/04 11:51:32;;;;;;;4.88;2.97;;;;;;;;;;4945722;28;20450;-79
2022/04/04 11:54:11;;;;;;;4.97;3.05;;;;;;;;;;4976332;28;20440;-79
2022/04/04 11:56:37;;;;;;;5.40;3.00;;;;;;;;;;4993818;28;20461;-79
2022/04/04 11:59:08;;;;;;;6.15;3.30;;;;;;;;;;4972216;28;21017;-78
2022/04/04 12:01:35;;;;;;;4.75;2.88;;;;;;;;;;4970832;28;20969;-79
2022/04/04 12:04:03;;;;;;;4.78;2.90;;;;;;;;;;4989171;28;20422;-78
2022/04/04 12:06:30;;;;;;;4.82;2.60;;;;;;;;;;4975807;28;20957;-78
2022/04/04 12:09:03;;;;;;;4.78;2.92;;;;;;;;;;4988885;28;20427;-77
2022/04/04 12:11:29;;;;;;;4.57;2.78;;;;;;;;;;4976960;28;20791;-77
2022/04/04 12:14:00;;;;;;;12.75;3.10;;;;;;;;;;4986873;28;20499;-78
2022/04/04 12:16:26;;;;;;;4.53;3.00;;;;;;;;;;5008156;28;20435;-78
2022/04/04 12:18:53;;;;;;;4.25;2.80;;;;;;;;;;4958137;28;20440;-78
2022/04/04 12:21:20;;;;;;;4.55;2.90;;;;;;;;;;4979758;28;20823;-78
2022/04/04 12:26:32;;;;;;;4.13;2.88;;;;;;;;;;4988142;28;20435;-79
2022/04/04 12:28:58;;;;;;;5.40;3.07;;;;;;;;;;4994586;28;20889;-79
2022/04/04 12:31:26;;;;;;;4.38;3.05;;;;;;;;;;4983140;28;20423;-79
2022/04/04 12:34:02;;;;;;;4.33;3.10;;;;;;;;;;4992910;28;20538;-79
2022/04/04 12:36:29;;;;;;;6.93;3.00;;;;;;;;;;4996484;28;20437;-79
2022/04/04 12:38:57;;;;;;;6.00;2.97;;;;;;;;;;4979947;28;20769;-81
2022/04/04 12:41:23;;;;;;;3.97;2.88;;;;;;;;;;4986986;28;20437;-78
2022/04/04 12:43:59;;;;;;;5.27;3.03;;;;;;;;;;4976866;28;20436;-79
2022/04/04 12:46:29;;;;;;;4.93;2.80;;;;;;;;;;4976687;28;20440;-80
2022/04/04 12:49:07;;;;;;;4.63;2.92;;;;;;;;;;4977064;28;20444;-79
2022/04/04 12:51:34;;;;;;;5.78;3.35;;;;;;;;;;4984935;28;20432;-80
2022/04/04 12:54:00;;;;;;;6.10;3.50;;;;;;;;;;4987827;28;20451;-81
2022/04/04 12:56:31;;;;;;;4.90;2.97;;;;;;;;;;4988618;28;20437;-80
2022/04/04 12:59:02;;;;;;;4.97;3.20;;;;;;;;;;4985988;28;20438;-80
2022/04/04 13:01:28;;;;;;;5.55;3.28;;;;;;;;;;4987011;28;20490;-80
2022/04/04 13:03:55;;;;;;;4.65;3.05;;;;;;;;;;4964317;28;20423;-82
2022/04/04 13:06:21;;;;;;;5.03;3.50;;;;;;;;;;4984191;28;20826;-81
2022/04/04 13:08:59;;;;;;;5.75;3.38;;;8.50;99.90;;;;;;4988704;28;20481;-83
2022/04/04 13:11:26;;;;;;;5.85;3.63;;;;;;;;;;5007862;28;20433;-81
2022/04/04 13:14:05;;;;;;;5.22;3.40;;;;;;;;;;4978880;28;20469;-80
2022/04/04 13:16:35;;;;;;;5.60;3.50;;;;;;;;;;4970121;28;20535;-79
2022/04/04 13:19:01;;;;;;;6.53;4.00;;;;;;;;;;4973181;28;20456;-82
2022/04/04 13:21:27;;;;;;;7.70;4.20;;;8.60;99.90;;;;;;4966368;28;20450;-79
2022/04/04 13:23:54;;;;;;;7.57;4.38;;;;;;;;;;5000616;28;20798;-80
2022/04/04 13:26:20;;;;;;;6.97;4.13;;;;;;;;;;4973292;28;20440;-80
2022/04/04 13:28:46;;;;;;;6.95;4.65;;;;;;;;;;4980039;28;20519;-80
2022/04/04 13:31:12;;;;;;;7.93;5.20;;;;;;;;;;4983072;28;20437;-81
2022/04/04 13:33:38;;;;;;;9.23;5.53;;;;;;;;;;4993694;28;21005;-83
2022/04/04 13:36:05;;;;;;;9.90;6.07;;;;;;;;;;4963311;28;20482;-82
2022/04/04 13:38:31;;;;;;;11.07;6.53;;;;;;;;;;4987559;28;20432;-80
2022/04/04 13:40:57;;;;;;;12.88;7.35;;;;;;;;;;4981284;28;20437;-82
2022/04/04 13:43:26;;;;;;;11.17;7.10;;;;;;;;;;4973396;28;20535;-81
2022/04/04 13:45:53;;;;;;;13.25;7.60;;;;;;;;;;4994542;28;20437;-82
2022/04/04 13:48:19;;;;;;;12.65;7.20;;;;;;;;;;4991254;28;20925;-81
2022/04/04 13:50:45;;;;;;;12.80;7.25;;;;;;;;;;4959387;28;20455;-80
2022/04/04 13:53:12;;;;;;;11.43;7.27;;;;;;;;;;4966251;28;20492;-81
2022/04/04 13:55:38;;;;;;;13.05;7.85;;;;;;;;;;4985110;28;20440;-81
2022/04/04 13:58:04;;;;;;;14.32;7.20;;;;;;;;;;4957051;28;20968;-82
2022/04/04 14:00:30;;;;;;;11.27;6.70;;;;;;;;;;4970500;28;20444;-83
2022/04/04 14:02:56;;;;;;;16.87;8.67;;;;;;;;;;4975282;28;20488;-82
2022/04/04 14:05:23;;;;;;;15.90;8.48;;;;;;;;;;4987878;28;20445;-81
2022/04/04 14:07:50;;;;;;;13.32;7.93;;;;;;;;;;4992322;28;20431;-83
2022/04/04 14:10:17;;;;;;;17.65;9.10;;;;;;;;;;4973318;28;20428;-82
2022/04/04 14:12:43;;;;;;;14.23;7.47;;;;;;;;;;4986352;28;20429;-81
2022/04/04 14:15:10;;;;;;;16.27;7.13;;;;;;;;;;4979429;28;20432;-83
2022/04/04 14:17:38;;;;;;;12.83;7.10;;;;;;;;;;4972351;28;20442;-82
2022/04/04 14:20:05;;;;;;;13.85;7.35;;;;;;;;;;4988007;28;20474;-84
2022/04/04 14:22:32;;;;;;;14.45;7.65;;;;;;;;;;4987183;28;20422;-82
2022/04/04 14:24:58;;;;;;;14.55;7.18;;;;;;;;;;4976119;28;20431;-82
2022/04/04 14:27:25;;;;;;;16.63;7.30;;;;;;;;;;4983103;28;21017;-82
2022/04/04 14:29:51;;;;;;;15.07;7.73;;;;;;;;;;4977508;28;20539;-81
2022/04/04 14:32:18;;;;;;;15.23;7.57;;;;;;;;;;4969947;28;20436;-82